sensor_id;sensor_type;location;lat;lon;timestamp;P1;durP1;ratioP1;P2;durP2;ratioP2
83663;SDS011;73634;47.068;15.426;2023-11-21T00:01:39;15.32;;;6.88;;
83663;SDS011;73634;47.068;15.426;2023-11-21T00:07:08;17.08;;;7.45;;
83663;SDS011;73634;47.068;15.426;2023-11-21T00:09:34;18.48;;;9.00;;
83663;SDS011;73634;47.068;15.426;2023-11-21T00:12:03;18.05;;;7.75;;
83663;SDS011;73634;47.068;15.426;2023-11-21T00:14:28;16.08;;;7.50;;
83663;SDS011;73634;47.068;15.426;2023-11-21T00:16:54;15.80;;;7.28;;
83663;SDS011;73634;47.068;15.426;2023-11-21T00:19:19;17.02;;;8.20;;
83663;SDS011;73634;47.068;15.426;2023-11-21T00:21:45;16.67;;;8.82;;
83663;SDS011;73634;47.068;15.426;2023-11-21T00:24:13;17.75;;;8.30;;
83663;SDS011;73634;47.068;15.426;2023-11-21T00:26:39;16.95;;;8.55;;
83663;SDS011;73634;47.068;15.426;2023-11-21T00:31:44;20.90;;;9.90;;
83663;SDS011;73634;47.068;15.426;2023-11-21T00:34:11;23.23;;;10.27;;
83663;SDS011;73634;47.068;15.426;2023-11-21T00:36:37;21.88;;;10.77;;
83663;SDS011;73634;47.068;15.426;2023-11-21T00:39:03;24.58;;;11.00;;
83663;SDS011;73634;47.068;15.426;2023-11-21T00:41:30;22.25;;;10.32;;
83663;SDS011;73634;47.068;15.426;2023-11-21T00:44:01;19.83;;;10.00;;
83663;SDS011;73634;47.068;15.426;2023-11-21T00:46:26;23.08;;;11.70;;
83663;SDS011;73634;47.068;15.426;2023-11-21T00:48:54;23.92;;;11.38;;
83663;SDS011;73634;47.068;15.426;2023-11-21T00:53:24;19.55;;;9.02;;
83663;SDS011;73634;47.068;15.426;2023-11-21T00:55:49;22.30;;;10.20;;
83663;SDS011;73634;47.068;15.426;2023-11-21T00:58:15;16.13;;;10.00;;
83663;SDS011;73634;47.068;15.426;2023-11-21T01:00:40;18.98;;;8.48;;
83663;SDS011;73634;47.068;15.426;2023-11-21T01:03:06;19.77;;;10.02;;
83663;SDS011;73634;47.068;15.426;2023-11-21T01:05:33;19.35;;;9.70;;
83663;SDS011;73634;47.068;15.426;2023-11-21T01:07:59;19.23;;;9.70;;
83663;SDS011;73634;47.068;15.426;2023-11-21T01:10:24;19.10;;;8.13;;
83663;SDS011;73634;47.068;15.426;2023-11-21T01:12:50;20.27;;;8.18;;
83663;SDS011;73634;47.068;15.426;2023-11-21T01:18:04;16.38;;;7.53;;
83663;SDS011;73634;47.068;15.426;2023-11-21T01:20:30;14.95;;;7.20;;
83663;SDS011;73634;47.068;15.426;2023-11-21T01:22:55;20.40;;;8.23;;
83663;SDS011;73634;47.068;15.426;2023-11-21T01:25:20;16.23;;;8.05;;
83663;SDS011;73634;47.068;15.426;2023-11-21T01:27:46;14.35;;;7.35;;
83663;SDS011;73634;47.068;15.426;2023-11-21T01:30:12;16.17;;;7.18;;
83663;SDS011;73634;47.068;15.426;2023-11-21T01:32:37;18.25;;;8.88;;
83663;SDS011;73634;47.068;15.426;2023-11-21T01:35:04;18.70;;;8.30;;
83663;SDS011;73634;47.068;15.426;2023-11-21T01:37:31;17.80;;;7.97;;
83663;SDS011;73634;47.068;15.426;2023-11-21T01:42:45;17.50;;;8.38;;
83663;SDS011;73634;47.068;15.426;2023-11-21T01:45:12;17.75;;;7.25;;
83663;SDS011;73634;47.068;15.426;2023-11-21T01:47:38;16.83;;;7.97;;
83663;SDS011;73634;47.068;15.426;2023-11-21T01:50:06;16.13;;;7.53;;
83663;SDS011;73634;47.068;15.426;2023-11-21T01:52:33;13.75;;;7.35;;
83663;SDS011;73634;47.068;15.426;2023-11-21T01:55:00;15.77;;;7.55;;
83663;SDS011;73634;47.068;15.426;2023-11-21T01:57:25;18.55;;;8.32;;
83663;SDS011;73634;47.068;15.426;2023-11-21T01:59:51;16.85;;;7.63;;
83663;SDS011;73634;47.068;15.426;2023-11-21T02:02:19;14.13;;;6.85;;
83663;SDS011;73634;47.068;15.426;2023-11-21T02:04:45;12.02;;;6.68;;
83663;SDS011;73634;47.068;15.426;2023-11-21T02:08:41;11.40;;;5.57;;
83663;SDS011;73634;47.068;15.426;2023-11-21T02:11:09;14.68;;;5.88;;
83663;SDS011;73634;47.068;15.426;2023-11-21T02:13:35;13.07;;;4.97;;
83663;SDS011;73634;47.068;15.426;2023-11-21T02:16:01;9.27;;;4.10;;
83663;SDS011;73634;47.068;15.426;2023-11-21T02:18:26;8.98;;;3.90;;
83663;SDS011;73634;47.068;15.426;2023-11-21T02:20:54;9.45;;;4.28;;
83663;SDS011;73634;47.068;15.426;2023-11-21T02:23:20;7.72;;;3.42;;
83663;SDS011;73634;47.068;15.426;2023-11-21T02:25:46;8.05;;;3.22;;
83663;SDS011;73634;47.068;15.426;2023-11-21T02:28:12;8.20;;;3.70;;
83663;SDS011;73634;47.068;15.426;2023-11-21T02:30:40;9.85;;;2.80;;
83663;SDS011;73634;47.068;15.426;2023-11-21T02:35:24;8.45;;;2.92;;
83663;SDS011;73634;47.068;15.426;2023-11-21T02:37:52;6.50;;;2.80;;
83663;SDS011;73634;47.068;15.426;2023-11-21T02:40:18;6.50;;;2.42;;
83663;SDS011;73634;47.068;15.426;2023-11-21T02:42:45;6.78;;;2.90;;
83663;SDS011;73634;47.068;15.426;2023-11-21T02:45:16;6.85;;;2.70;;
83663;SDS011;73634;47.068;15.426;2023-11-21T02:47:45;7.63;;;2.95;;
83663;SDS011;73634;47.068;15.426;2023-11-21T02:50:10;6.70;;;3.28;;
83663;SDS011;73634;47.068;15.426;2023-11-21T02:52:36;7.75;;;2.65;;
83663;SDS011;73634;47.068;15.426;2023-11-21T02:55:04;7.40;;;3.20;;
83663;SDS011;73634;47.068;15.426;2023-11-21T03:00:27;6.25;;;2.53;;
83663;SDS011;73634;47.068;15.426;2023-11-21T03:02:54;7.88;;;3.70;;
83663;SDS011;73634;47.068;15.426;2023-11-21T03:05:20;7.50;;;2.80;;
83663;SDS011;73634;47.068;15.426;2023-11-21T03:07:46;7.95;;;3.47;;
83663;SDS011;73634;47.068;15.426;2023-11-21T03:10:12;6.55;;;2.58;;
83663;SDS011;73634;47.068;15.426;2023-11-21T03:12:37;6.35;;;2.38;;
83663;SDS011;73634;47.068;15.426;2023-11-21T03:15:04;7.03;;;2.72;;
83663;SDS011;73634;47.068;15.426;2023-11-21T03:17:31;8.93;;;3.20;;
83663;SDS011;73634;47.068;15.426;2023-11-21T03:19:58;7.07;;;2.40;;
83663;SDS011;73634;47.068;15.426;2023-11-21T03:22:24;4.88;;;2.42;;
83663;SDS011;73634;47.068;15.426;2023-11-21T03:27:38;7.68;;;3.22;;
83663;SDS011;73634;47.068;15.426;2023-11-21T03:30:04;6.20;;;3.00;;
83663;SDS011;73634;47.068;15.426;2023-11-21T03:32:31;7.72;;;2.95;;
83663;SDS011;73634;47.068;15.426;2023-11-21T03:34:58;7.57;;;2.53;;
83663;SDS011;73634;47.068;15.426;2023-11-21T03:37:24;8.55;;;2.90;;
83663;SDS011;73634;47.068;15.426;2023-11-21T03:39:52;5.97;;;2.42;;
83663;SDS011;73634;47.068;15.426;2023-11-21T03:42:18;7.35;;;2.72;;
83663;SDS011;73634;47.068;15.426;2023-11-21T03:44:43;7.20;;;2.63;;
83663;SDS011;73634;47.068;15.426;2023-11-21T03:47:09;6.10;;;2.65;;
83663;SDS011;73634;47.068;15.426;2023-11-21T03:52:08;7.57;;;2.60;;
83663;SDS011;73634;47.068;15.426;2023-11-21T03:54:34;6.70;;;2.33;;
83663;SDS011;73634;47.068;15.426;2023-11-21T03:56:59;5.72;;;2.80;;
83663;SDS011;73634;47.068;15.426;2023-11-21T03:59:25;5.97;;;2.50;;
83663;SDS011;73634;47.068;15.426;2023-11-21T04:01:50;6.32;;;2.20;;
83663;SDS011;73634;47.068;15.426;2023-11-21T04:04:16;6.32;;;2.08;;
83663;SDS011;73634;47.068;15.426;2023-11-21T04:06:41;7.85;;;3.03;;
83663;SDS011;73634;47.068;15.426;2023-11-21T04:09:06;6.18;;;2.20;;
83663;SDS011;73634;47.068;15.426;2023-11-21T04:11:32;7.22;;;3.00;;
83663;SDS011;73634;47.068;15.426;2023-11-21T04:13:57;6.97;;;2.92;;
83663;SDS011;73634;47.068;15.426;2023-11-21T04:18:50;7.35;;;2.58;;
83663;SDS011;73634;47.068;15.426;2023-11-21T04:21:15;9.15;;;2.88;;
83663;SDS011;73634;47.068;15.426;2023-11-21T04:23:41;8.60;;;2.95;;
83663;SDS011;73634;47.068;15.426;2023-11-21T04:26:07;4.85;;;2.20;;
83663;SDS011;73634;47.068;15.426;2023-11-21T04:28:32;7.15;;;2.20;;
83663;SDS011;73634;47.068;15.426;2023-11-21T04:30:58;6.30;;;2.42;;
83663;SDS011;73634;47.068;15.426;2023-11-21T04:33:23;5.20;;;2.40;;
83663;SDS011;73634;47.068;15.426;2023-11-21T04:35:48;8.13;;;3.03;;
83663;SDS011;73634;47.068;15.426;2023-11-21T04:38:14;7.65;;;2.65;;
83663;SDS011;73634;47.068;15.426;2023-11-21T04:40:39;9.38;;;3.10;;
83663;SDS011;73634;47.068;15.426;2023-11-21T04:45:02;5.28;;;2.30;;
83663;SDS011;73634;47.068;15.426;2023-11-21T04:47:33;7.10;;;2.35;;
83663;SDS011;73634;47.068;15.426;2023-11-21T04:49:58;6.85;;;2.65;;
83663;SDS011;73634;47.068;15.426;2023-11-21T04:52:24;13.27;;;5.75;;
83663;SDS011;73634;47.068;15.426;2023-11-21T04:54:49;18.17;;;7.97;;
83663;SDS011;73634;47.068;15.426;2023-11-21T04:57:14;11.85;;;5.72;;
83663;SDS011;73634;47.068;15.426;2023-11-21T04:59:40;12.57;;;4.20;;
83663;SDS011;73634;47.068;15.426;2023-11-21T05:02:05;7.82;;;2.90;;
83663;SDS011;73634;47.068;15.426;2023-11-21T05:04:31;8.82;;;3.92;;
83663;SDS011;73634;47.068;15.426;2023-11-21T05:08:43;10.07;;;3.83;;
83663;SDS011;73634;47.068;15.426;2023-11-21T05:11:08;10.88;;;4.15;;
83663;SDS011;73634;47.068;15.426;2023-11-21T05:13:35;14.82;;;6.30;;
83663;SDS011;73634;47.068;15.426;2023-11-21T05:16:01;17.90;;;6.18;;
83663;SDS011;73634;47.068;15.426;2023-11-21T05:18:29;6.80;;;2.90;;
83663;SDS011;73634;47.068;15.426;2023-11-21T05:20:55;7.10;;;3.03;;
83663;SDS011;73634;47.068;15.426;2023-11-21T05:23:20;7.57;;;3.03;;
83663;SDS011;73634;47.068;15.426;2023-11-21T05:25:46;6.95;;;2.28;;
83663;SDS011;73634;47.068;15.426;2023-11-21T05:28:12;11.25;;;4.38;;
83663;SDS011;73634;47.068;15.426;2023-11-21T05:32:39;7.18;;;3.13;;
83663;SDS011;73634;47.068;15.426;2023-11-21T05:35:07;10.30;;;3.92;;
83663;SDS011;73634;47.068;15.426;2023-11-21T05:37:37;10.43;;;3.47;;
83663;SDS011;73634;47.068;15.426;2023-11-21T05:40:04;7.80;;;3.55;;
83663;SDS011;73634;47.068;15.426;2023-11-21T05:42:31;8.43;;;4.20;;
83663;SDS011;73634;47.068;15.426;2023-11-21T05:45:03;10.95;;;5.40;;
83663;SDS011;73634;47.068;15.426;2023-11-21T05:47:36;13.35;;;6.18;;
83663;SDS011;73634;47.068;15.426;2023-11-21T05:50:04;13.18;;;7.10;;
83663;SDS011;73634;47.068;15.426;2023-11-21T05:52:30;14.50;;;5.57;;
83663;SDS011;73634;47.068;15.426;2023-11-21T05:57:05;13.10;;;5.32;;
83663;SDS011;73634;47.068;15.426;2023-11-21T05:59:30;15.98;;;6.50;;
83663;SDS011;73634;47.068;15.426;2023-11-21T06:01:56;13.63;;;6.35;;
83663;SDS011;73634;47.068;15.426;2023-11-21T06:04:21;13.77;;;5.43;;
83663;SDS011;73634;47.068;15.426;2023-11-21T06:06:49;12.98;;;5.57;;
83663;SDS011;73634;47.068;15.426;2023-11-21T06:09:14;11.82;;;5.90;;
83663;SDS011;73634;47.068;15.426;2023-11-21T06:11:40;12.25;;;5.78;;
83663;SDS011;73634;47.068;15.426;2023-11-21T06:14:05;12.52;;;5.97;;
83663;SDS011;73634;47.068;15.426;2023-11-21T06:16:33;13.57;;;6.40;;
83663;SDS011;73634;47.068;15.426;2023-11-21T06:18:58;11.95;;;6.30;;
83663;SDS011;73634;47.068;15.426;2023-11-21T06:22:47;12.45;;;6.43;;
83663;SDS011;73634;47.068;15.426;2023-11-21T06:25:15;13.10;;;6.15;;
83663;SDS011;73634;47.068;15.426;2023-11-21T06:27:43;11.10;;;5.18;;
83663;SDS011;73634;47.068;15.426;2023-11-21T06:30:09;15.68;;;6.35;;
83663;SDS011;73634;47.068;15.426;2023-11-21T06:32:37;16.80;;;6.88;;
83663;SDS011;73634;47.068;15.426;2023-11-21T06:35:03;12.98;;;6.32;;
83663;SDS011;73634;47.068;15.426;2023-11-21T06:37:30;14.95;;;7.43;;
83663;SDS011;73634;47.068;15.426;2023-11-21T06:39:56;12.70;;;6.28;;
83663;SDS011;73634;47.068;15.426;2023-11-21T06:45:14;12.30;;;6.97;;
83663;SDS011;73634;47.068;15.426;2023-11-21T06:47:40;14.05;;;6.75;;
83663;SDS011;73634;47.068;15.426;2023-11-21T06:50:06;14.35;;;6.55;;
83663;SDS011;73634;47.068;15.426;2023-11-21T06:52:32;12.68;;;6.85;;
83663;SDS011;73634;47.068;15.426;2023-11-21T06:54:57;15.48;;;7.38;;
83663;SDS011;73634;47.068;15.426;2023-11-21T06:57:23;16.27;;;8.55;;
83663;SDS011;73634;47.068;15.426;2023-11-21T06:59:48;22.77;;;9.93;;
83663;SDS011;73634;47.068;15.426;2023-11-21T07:02:15;24.17;;;10.05;;
83663;SDS011;73634;47.068;15.426;2023-11-21T07:04:43;15.07;;;8.30;;
83663;SDS011;73634;47.068;15.426;2023-11-21T07:07:10;14.05;;;7.25;;
83663;SDS011;73634;47.068;15.426;2023-11-21T07:12:33;12.52;;;6.25;;
83663;SDS011;73634;47.068;15.426;2023-11-21T07:14:59;16.45;;;7.40;;
83663;SDS011;73634;47.068;15.426;2023-11-21T07:17:24;15.90;;;8.50;;
83663;SDS011;73634;47.068;15.426;2023-11-21T07:19:50;15.63;;;7.20;;
83663;SDS011;73634;47.068;15.426;2023-11-21T07:22:16;18.67;;;7.55;;
83663;SDS011;73634;47.068;15.426;2023-11-21T07:27:17;16.05;;;6.75;;
83663;SDS011;73634;47.068;15.426;2023-11-21T07:29:43;13.82;;;6.55;;
83663;SDS011;73634;47.068;15.426;2023-11-21T07:32:08;14.32;;;6.80;;
83663;SDS011;73634;47.068;15.426;2023-11-21T07:34:38;13.95;;;6.70;;
83663;SDS011;73634;47.068;15.426;2023-11-21T07:38:30;12.30;;;6.00;;
83663;SDS011;73634;47.068;15.426;2023-11-21T07:40:56;10.93;;;4.88;;
83663;SDS011;73634;47.068;15.426;2023-11-21T07:43:21;11.25;;;5.00;;
83663;SDS011;73634;47.068;15.426;2023-11-21T07:45:47;13.68;;;5.57;;
83663;SDS011;73634;47.068;15.426;2023-11-21T07:48:12;8.73;;;4.63;;
83663;SDS011;73634;47.068;15.426;2023-11-21T07:50:38;8.88;;;4.63;;
83663;SDS011;73634;47.068;15.426;2023-11-21T07:53:03;8.98;;;4.30;;
83663;SDS011;73634;47.068;15.426;2023-11-21T07:55:30;8.30;;;4.43;;
83663;SDS011;73634;47.068;15.426;2023-11-21T07:57:57;9.63;;;4.53;;
83663;SDS011;73634;47.068;15.426;2023-11-21T08:02:58;10.85;;;4.20;;
83663;SDS011;73634;47.068;15.426;2023-11-21T08:05:23;8.80;;;3.90;;
83663;SDS011;73634;47.068;15.426;2023-11-21T08:07:49;9.85;;;3.90;;
83663;SDS011;73634;47.068;15.426;2023-11-21T08:10:15;10.10;;;4.10;;
83663;SDS011;73634;47.068;15.426;2023-11-21T08:12:42;8.50;;;4.47;;
83663;SDS011;73634;47.068;15.426;2023-11-21T08:15:08;11.27;;;4.72;;
83663;SDS011;73634;47.068;15.426;2023-11-21T08:17:34;12.30;;;5.63;;
83663;SDS011;73634;47.068;15.426;2023-11-21T08:20:00;22.40;;;9.38;;
83663;SDS011;73634;47.068;15.426;2023-11-21T08:22:25;36.55;;;13.57;;
83663;SDS011;73634;47.068;15.426;2023-11-21T08:24:51;47.45;;;16.38;;
83663;SDS011;73634;47.068;15.426;2023-11-21T08:29:57;38.22;;;13.05;;
83663;SDS011;73634;47.068;15.426;2023-11-21T08:32:24;26.65;;;9.52;;
83663;SDS011;73634;47.068;15.426;2023-11-21T08:34:50;25.23;;;8.63;;
83663;SDS011;73634;47.068;15.426;2023-11-21T08:37:16;19.17;;;6.85;;
83663;SDS011;73634;47.068;15.426;2023-11-21T08:39:48;18.05;;;6.93;;
83663;SDS011;73634;47.068;15.426;2023-11-21T08:42:13;15.15;;;6.60;;
83663;SDS011;73634;47.068;15.426;2023-11-21T08:44:39;12.60;;;4.88;;
83663;SDS011;73634;47.068;15.426;2023-11-21T08:47:05;11.82;;;5.03;;
83663;SDS011;73634;47.068;15.426;2023-11-21T08:49:31;12.30;;;5.45;;
83663;SDS011;73634;47.068;15.426;2023-11-21T08:54:06;18.35;;;5.78;;
83663;SDS011;73634;47.068;15.426;2023-11-21T08:56:33;15.70;;;5.63;;
83663;SDS011;73634;47.068;15.426;2023-11-21T08:58:59;19.35;;;7.85;;
83663;SDS011;73634;47.068;15.426;2023-11-21T09:01:28;17.80;;;5.88;;
83663;SDS011;73634;47.068;15.426;2023-11-21T09:03:56;15.88;;;5.80;;
83663;SDS011;73634;47.068;15.426;2023-11-21T09:06:22;13.32;;;5.32;;
83663;SDS011;73634;47.068;15.426;2023-11-21T09:08:48;15.07;;;5.40;;
83663;SDS011;73634;47.068;15.426;2023-11-21T09:11:13;11.45;;;5.45;;
83663;SDS011;73634;47.068;15.426;2023-11-21T09:13:39;13.20;;;6.40;;
83663;SDS011;73634;47.068;15.426;2023-11-21T09:17:48;11.82;;;5.55;;
83663;SDS011;73634;47.068;15.426;2023-11-21T09:20:13;13.98;;;4.85;;
83663;SDS011;73634;47.068;15.426;2023-11-21T09:22:40;13.60;;;4.78;;
83663;SDS011;73634;47.068;15.426;2023-11-21T09:25:05;11.68;;;4.70;;
83663;SDS011;73634;47.068;15.426;2023-11-21T09:27:33;8.73;;;4.28;;
83663;SDS011;73634;47.068;15.426;2023-11-21T09:29:59;10.82;;;4.68;;
83663;SDS011;73634;47.068;15.426;2023-11-21T09:32:24;9.90;;;4.72;;
83663;SDS011;73634;47.068;15.426;2023-11-21T09:34:50;9.40;;;4.63;;
83663;SDS011;73634;47.068;15.426;2023-11-21T09:37:16;12.02;;;4.55;;
83663;SDS011;73634;47.068;15.426;2023-11-21T09:39:42;8.63;;;4.53;;
83663;SDS011;73634;47.068;15.426;2023-11-21T09:42:59;15.75;;;5.43;;
83663;SDS011;73634;47.068;15.426;2023-11-21T09:45:26;14.60;;;4.85;;
83663;SDS011;73634;47.068;15.426;2023-11-21T09:47:53;9.52;;;5.00;;
83663;SDS011;73634;47.068;15.426;2023-11-21T09:50:23;12.13;;;5.03;;
83663;SDS011;73634;47.068;15.426;2023-11-21T09:55:18;5.65;;;3.05;;
83663;SDS011;73634;47.068;15.426;2023-11-21T09:57:46;7.65;;;3.45;;
83663;SDS011;73634;47.068;15.426;2023-11-21T10:00:13;7.70;;;4.03;;
83663;SDS011;73634;47.068;15.426;2023-11-21T10:02:45;7.50;;;3.95;;
83663;SDS011;73634;47.068;15.426;2023-11-21T10:07:39;10.88;;;5.03;;
83663;SDS011;73634;47.068;15.426;2023-11-21T10:10:08;9.93;;;4.55;;
83663;SDS011;73634;47.068;15.426;2023-11-21T10:12:34;10.38;;;4.60;;
83663;SDS011;73634;47.068;15.426;2023-11-21T10:15:00;8.95;;;4.10;;
83663;SDS011;73634;47.068;15.426;2023-11-21T10:17:31;9.68;;;5.15;;
83663;SDS011;73634;47.068;15.426;2023-11-21T10:20:06;8.35;;;4.53;;
83663;SDS011;73634;47.068;15.426;2023-11-21T10:22:37;12.88;;;5.32;;
83663;SDS011;73634;47.068;15.426;2023-11-21T10:25:06;12.52;;;4.68;;
83663;SDS011;73634;47.068;15.426;2023-11-21T10:27:39;8.27;;;3.85;;
83663;SDS011;73634;47.068;15.426;2023-11-21T10:32:36;8.73;;;4.35;;
83663;SDS011;73634;47.068;15.426;2023-11-21T10:35:01;7.38;;;4.15;;
83663;SDS011;73634;47.068;15.426;2023-11-21T10:37:32;9.68;;;4.07;;
83663;SDS011;73634;47.068;15.426;2023-11-21T10:40:01;10.57;;;4.38;;
83663;SDS011;73634;47.068;15.426;2023-11-21T10:42:26;9.18;;;4.10;;
83663;SDS011;73634;47.068;15.426;2023-11-21T10:44:52;10.02;;;4.65;;
83663;SDS011;73634;47.068;15.426;2023-11-21T10:47:21;8.85;;;4.40;;
83663;SDS011;73634;47.068;15.426;2023-11-21T10:49:50;10.30;;;4.65;;
83663;SDS011;73634;47.068;15.426;2023-11-21T10:52:21;8.57;;;4.60;;
83663;SDS011;73634;47.068;15.426;2023-11-21T10:57:19;9.63;;;4.38;;
83663;SDS011;73634;47.068;15.426;2023-11-21T10:59:47;9.75;;;4.95;;
83663;SDS011;73634;47.068;15.426;2023-11-21T11:02:24;9.20;;;4.57;;
83663;SDS011;73634;47.068;15.426;2023-11-21T11:04:58;10.40;;;4.22;;
83663;SDS011;73634;47.068;15.426;2023-11-21T11:07:28;10.35;;;3.85;;
83663;SDS011;73634;47.068;15.426;2023-11-21T11:09:55;10.05;;;4.63;;
83663;SDS011;73634;47.068;15.426;2023-11-21T11:12:23;9.30;;;4.68;;
83663;SDS011;73634;47.068;15.426;2023-11-21T11:14:48;10.18;;;3.60;;
83663;SDS011;73634;47.068;15.426;2023-11-21T11:17:14;8.13;;;3.60;;
83663;SDS011;73634;47.068;15.426;2023-11-21T11:24:54;9.10;;;3.80;;
83663;SDS011;73634;47.068;15.426;2023-11-21T11:27:33;7.55;;;3.97;;
83663;SDS011;73634;47.068;15.426;2023-11-21T11:35:53;8.18;;;3.65;;
83663;SDS011;73634;47.068;15.426;2023-11-21T11:38:21;8.52;;;3.75;;
83663;SDS011;73634;47.068;15.426;2023-11-21T11:40:52;8.02;;;3.90;;
83663;SDS011;73634;47.068;15.426;2023-11-21T11:43:27;10.32;;;4.70;;
83663;SDS011;73634;47.068;15.426;2023-11-21T11:47:43;7.18;;;3.65;;
83663;SDS011;73634;47.068;15.426;2023-11-21T11:52:48;8.85;;;4.65;;
83663;SDS011;73634;47.068;15.426;2023-11-21T11:55:16;8.95;;;4.30;;
83663;SDS011;73634;47.068;15.426;2023-11-21T12:02:56;9.55;;;4.65;;
83663;SDS011;73634;47.068;15.426;2023-11-21T12:05:24;9.15;;;4.88;;
83663;SDS011;73634;47.068;15.426;2023-11-21T12:10:40;9.00;;;4.93;;
83663;SDS011;73634;47.068;15.426;2023-11-21T12:13:06;10.73;;;4.82;;
83663;SDS011;73634;47.068;15.426;2023-11-21T12:15:33;11.07;;;4.43;;
83663;SDS011;73634;47.068;15.426;2023-11-21T12:18:11;10.05;;;3.80;;
83663;SDS011;73634;47.068;15.426;2023-11-21T12:20:36;7.32;;;3.60;;
83663;SDS011;73634;47.068;15.426;2023-11-21T12:23:03;8.93;;;4.57;;
83663;SDS011;73634;47.068;15.426;2023-11-21T12:25:31;11.98;;;4.90;;
83663;SDS011;73634;47.068;15.426;2023-11-21T12:28:01;9.43;;;4.07;;
83663;SDS011;73634;47.068;15.426;2023-11-21T12:33:11;10.07;;;5.13;;
83663;SDS011;73634;47.068;15.426;2023-11-21T12:35:42;11.07;;;5.10;;
83663;SDS011;73634;47.068;15.426;2023-11-21T12:38:09;8.95;;;4.60;;
83663;SDS011;73634;47.068;15.426;2023-11-21T12:40:35;10.80;;;4.88;;
83663;SDS011;73634;47.068;15.426;2023-11-21T12:43:00;10.27;;;4.15;;
83663;SDS011;73634;47.068;15.426;2023-11-21T12:45:29;10.55;;;4.93;;
83663;SDS011;73634;47.068;15.426;2023-11-21T12:50:24;12.10;;;4.85;;
83663;SDS011;73634;47.068;15.426;2023-11-21T12:52:58;14.05;;;6.20;;
83663;SDS011;73634;47.068;15.426;2023-11-21T12:57:56;9.95;;;4.80;;
83663;SDS011;73634;47.068;15.426;2023-11-21T13:00:33;10.00;;;5.40;;
83663;SDS011;73634;47.068;15.426;2023-11-21T13:03:02;8.98;;;4.88;;
83663;SDS011;73634;47.068;15.426;2023-11-21T13:07:55;11.00;;;5.22;;
83663;SDS011;73634;47.068;15.426;2023-11-21T13:10:25;11.85;;;4.78;;
83663;SDS011;73634;47.068;15.426;2023-11-21T13:12:55;8.98;;;5.03;;
83663;SDS011;73634;47.068;15.426;2023-11-21T13:15:23;10.02;;;4.53;;
83663;SDS011;73634;47.068;15.426;2023-11-21T13:21:08;8.88;;;4.50;;
83663;SDS011;73634;47.068;15.426;2023-11-21T13:23:41;7.95;;;3.80;;
83663;SDS011;73634;47.068;15.426;2023-11-21T13:26:07;8.10;;;4.47;;
83663;SDS011;73634;47.068;15.426;2023-11-21T13:28:34;10.23;;;5.35;;
83663;SDS011;73634;47.068;15.426;2023-11-21T13:31:01;11.43;;;4.57;;
83663;SDS011;73634;47.068;15.426;2023-11-21T13:33:34;7.50;;;4.15;;
83663;SDS011;73634;47.068;15.426;2023-11-21T13:36:02;9.70;;;4.35;;
83663;SDS011;73634;47.068;15.426;2023-11-21T13:38:32;8.10;;;4.15;;
83663;SDS011;73634;47.068;15.426;2023-11-21T13:40:59;8.60;;;4.65;;
83663;SDS011;73634;47.068;15.426;2023-11-21T13:46:00;10.95;;;4.38;;
83663;SDS011;73634;47.068;15.426;2023-11-21T13:48:38;11.07;;;4.75;;
83663;SDS011;73634;47.068;15.426;2023-11-21T13:51:08;13.15;;;4.35;;
83663;SDS011;73634;47.068;15.426;2023-11-21T13:53:41;9.60;;;5.00;;
83663;SDS011;73634;47.068;15.426;2023-11-21T13:56:07;13.93;;;5.40;;
83663;SDS011;73634;47.068;15.426;2023-11-21T13:58:33;10.10;;;5.32;;
83663;SDS011;73634;47.068;15.426;2023-11-21T14:01:26;10.43;;;5.30;;
83663;SDS011;73634;47.068;15.426;2023-11-21T14:03:54;9.27;;;4.65;;
83663;SDS011;73634;47.068;15.426;2023-11-21T14:06:26;11.77;;;4.38;;
83663;SDS011;73634;47.068;15.426;2023-11-21T14:10:54;9.02;;;4.75;;
83663;SDS011;73634;47.068;15.426;2023-11-21T14:13:25;9.40;;;6.03;;
83663;SDS011;73634;47.068;15.426;2023-11-21T14:15:51;9.27;;;4.22;;
83663;SDS011;73634;47.068;15.426;2023-11-21T14:18:23;9.85;;;4.65;;
83663;SDS011;73634;47.068;15.426;2023-11-21T14:20:55;12.45;;;5.55;;
83663;SDS011;73634;47.068;15.426;2023-11-21T14:23:21;9.98;;;5.50;;
83663;SDS011;73634;47.068;15.426;2023-11-21T14:25:48;10.73;;;4.82;;
83663;SDS011;73634;47.068;15.426;2023-11-21T14:28:15;14.40;;;5.85;;
83663;SDS011;73634;47.068;15.426;2023-11-21T14:30:40;12.27;;;5.47;;
83663;SDS011;73634;47.068;15.426;2023-11-21T14:35:44;13.25;;;5.07;;
83663;SDS011;73634;47.068;15.426;2023-11-21T14:38:10;10.77;;;5.13;;
83663;SDS011;73634;47.068;15.426;2023-11-21T14:40:35;13.95;;;5.07;;
83663;SDS011;73634;47.068;15.426;2023-11-21T14:43:04;10.98;;;4.45;;
83663;SDS011;73634;47.068;15.426;2023-11-21T14:45:32;9.85;;;4.13;;
83663;SDS011;73634;47.068;15.426;2023-11-21T14:47:58;20.63;;;6.32;;
83663;SDS011;73634;47.068;15.426;2023-11-21T14:50:30;11.98;;;5.13;;
83663;SDS011;73634;47.068;15.426;2023-11-21T14:53:08;12.25;;;5.13;;
83663;SDS011;73634;47.068;15.426;2023-11-21T14:55:34;9.65;;;5.20;;
83663;SDS011;73634;47.068;15.426;2023-11-21T14:58:06;13.18;;;5.50;;
83663;SDS011;73634;47.068;15.426;2023-11-21T15:01:57;12.73;;;6.45;;
83663;SDS011;73634;47.068;15.426;2023-11-21T15:04:22;9.88;;;5.30;;
83663;SDS011;73634;47.068;15.426;2023-11-21T15:07:04;12.30;;;6.10;;
83663;SDS011;73634;47.068;15.426;2023-11-21T15:09:31;10.00;;;5.45;;
83663;SDS011;73634;47.068;15.426;2023-11-21T15:12:10;15.90;;;6.30;;
83663;SDS011;73634;47.068;15.426;2023-11-21T15:14:43;14.95;;;6.95;;
83663;SDS011;73634;47.068;15.426;2023-11-21T15:17:20;13.05;;;6.90;;
83663;SDS011;73634;47.068;15.426;2023-11-21T15:20:04;10.93;;;5.95;;
83663;SDS011;73634;47.068;15.426;2023-11-21T15:22:43;15.88;;;8.18;;
83663;SDS011;73634;47.068;15.426;2023-11-21T15:25:16;13.73;;;6.40;;
83663;SDS011;73634;47.068;15.426;2023-11-21T15:27:49;12.70;;;7.45;;
83663;SDS011;73634;47.068;15.426;2023-11-21T15:31:43;16.70;;;7.85;;
83663;SDS011;73634;47.068;15.426;2023-11-21T15:34:19;13.50;;;6.38;;
83663;SDS011;73634;47.068;15.426;2023-11-21T15:37:10;13.07;;;7.00;;
83663;SDS011;73634;47.068;15.426;2023-11-21T15:43:04;25.83;;;10.38;;
83663;SDS011;73634;47.068;15.426;2023-11-21T15:49:05;15.38;;;7.60;;
83663;SDS011;73634;47.068;15.426;2023-11-21T15:51:49;18.17;;;8.52;;
83663;SDS011;73634;47.068;15.426;2023-11-21T15:58:05;21.58;;;8.77;;
83663;SDS011;73634;47.068;15.426;2023-11-21T16:00:45;44.45;;;16.75;;
83663;SDS011;73634;47.068;15.426;2023-11-21T16:06:34;22.35;;;9.32;;
83663;SDS011;73634;47.068;15.426;2023-11-21T16:11:07;13.45;;;6.97;;
83663;SDS011;73634;47.068;15.426;2023-11-21T16:13:32;18.98;;;9.43;;
83663;SDS011;73634;47.068;15.426;2023-11-21T16:15:59;18.38;;;9.23;;
83663;SDS011;73634;47.068;15.426;2023-11-21T16:18:24;13.20;;;6.78;;
83663;SDS011;73634;47.068;15.426;2023-11-21T16:20:50;14.88;;;7.45;;
83663;SDS011;73634;47.068;15.426;2023-11-21T16:23:15;15.95;;;8.00;;
83663;SDS011;73634;47.068;15.426;2023-11-21T16:25:41;22.42;;;8.95;;
83663;SDS011;73634;47.068;15.426;2023-11-21T16:28:07;16.35;;;7.82;;
83663;SDS011;73634;47.068;15.426;2023-11-21T16:30:32;11.93;;;7.10;;
83663;SDS011;73634;47.068;15.426;2023-11-21T16:33:02;16.77;;;7.80;;
83663;SDS011;73634;47.068;15.426;2023-11-21T16:37:18;15.27;;;8.05;;
83663;SDS011;73634;47.068;15.426;2023-11-21T16:39:44;16.10;;;8.52;;